sensor_id;sensor_type;location;lat;lon;timestamp;temperature;humidity
51950;DHT22;37974;53.218;6.640;2023-09-19T00:01:19;14.30;99.90
51950;DHT22;37974;53.218;6.640;2023-09-19T00:03:46;14.30;99.90
51950;DHT22;37974;53.218;6.640;2023-09-19T00:06:11;14.30;99.90
51950;DHT22;37974;53.218;6.640;2023-09-19T00:08:41;14.20;99.90
51950;DHT22;37974;53.218;6.640;2023-09-19T00:11:10;14.20;99.90
51950;DHT22;37974;53.218;6.640;2023-09-19T00:13:36;14.20;99.90
51950;DHT22;37974;53.218;6.640;2023-09-19T00:16:08;14.20;99.90
51950;DHT22;37974;53.218;6.640;2023-09-19T00:18:36;14.20;99.90
51950;DHT22;37974;53.218;6.640;2023-09-19T00:21:02;14.20;99.90
51950;DHT22;37974;53.218;6.640;2023-09-19T00:23:32;14.10;99.90
51950;DHT22;37974;53.218;6.640;2023-09-19T00:26:01;14.10;99.90
51950;DHT22;37974;53.218;6.640;2023-09-19T00:28:27;14.10;99.90
51950;DHT22;37974;53.218;6.640;2023-09-19T00:30:53;14.10;99.90
51950;DHT22;37974;53.218;6.640;2023-09-19T00:33:22;14.10;99.90
51950;DHT22;37974;53.218;6.640;2023-09-19T00:35:54;14.10;99.90
51950;DHT22;37974;53.218;6.640;2023-09-19T00:38:22;14.10;99.90
51950;DHT22;37974;53.218;6.640;2023-09-19T00:40:53;14.10;99.90
51950;DHT22;37974;53.218;6.640;2023-09-19T00:43:19;14.00;99.90
51950;DHT22;37974;53.218;6.640;2023-09-19T00:45:47;14.00;99.90
51950;DHT22;37974;53.218;6.640;2023-09-19T00:48:16;13.90;99.90
51950;DHT22;37974;53.218;6.640;2023-09-19T00:50:46;13.90;99.90
51950;DHT22;37974;53.218;6.640;2023-09-19T00:53:17;13.90;99.90
51950;DHT22;37974;53.218;6.640;2023-09-19T00:55:45;13.80;99.90
51950;DHT22;37974;53.218;6.640;2023-09-19T00:58:11;13.80;99.90
51950;DHT22;37974;53.218;6.640;2023-09-19T01:00:38;13.80;99.90
51950;DHT22;37974;53.218;6.640;2023-09-19T01:03:04;13.80;99.90
51950;DHT22;37974;53.218;6.640;2023-09-19T01:05:33;13.80;99.90
51950;DHT22;37974;53.218;6.640;2023-09-19T01:07:59;13.70;99.90
51950;DHT22;37974;53.218;6.640;2023-09-19T01:10:25;13.70;99.90
51950;DHT22;37974;53.218;6.640;2023-09-19T01:13:13;13.70;99.90
51950;DHT22;37974;53.218;6.640;2023-09-19T01:24:46;13.60;99.90
51950;DHT22;37974;53.218;6.640;2023-09-19T01:30:19;13.50;99.90
51950;DHT22;37974;53.218;6.640;2023-09-19T01:32:50;13.50;99.90
51950;DHT22;37974;53.218;6.640;2023-09-19T01:35:18;13.50;99.90
51950;DHT22;37974;53.218;6.640;2023-09-19T01:37:44;13.50;99.90
51950;DHT22;37974;53.218;6.640;2023-09-19T01:40:13;13.50;99.90
51950;DHT22;37974;53.218;6.640;2023-09-19T01:42:49;13.40;99.90
51950;DHT22;37974;53.218;6.640;2023-09-19T01:48:31;13.40;99.90
51950;DHT22;37974;53.218;6.640;2023-09-19T01:51:05;13.30;99.90
51950;DHT22;37974;53.218;6.640;2023-09-19T01:53:45;13.30;99.90
51950;DHT22;37974;53.218;6.640;2023-09-19T01:56:23;13.30;99.90
51950;DHT22;37974;53.218;6.640;2023-09-19T01:58:54;13.20;99.90
51950;DHT22;37974;53.218;6.640;2023-09-19T02:01:24;13.20;99.90
51950;DHT22;37974;53.218;6.640;2023-09-19T02:03:50;13.20;99.90
51950;DHT22;37974;53.218;6.640;2023-09-19T02:06:16;13.20;99.90
51950;DHT22;37974;53.218;6.640;2023-09-19T02:08:44;13.20;99.90
51950;DHT22;37974;53.218;6.640;2023-09-19T02:11:11;13.10;99.90
51950;DHT22;37974;53.218;6.640;2023-09-19T02:13:38;13.10;99.90
51950;DHT22;37974;53.218;6.640;2023-09-19T02:16:04;13.10;99.90
51950;DHT22;37974;53.218;6.640;2023-09-19T02:18:30;13.10;99.90
51950;DHT22;37974;53.218;6.640;2023-09-19T02:20:56;13.00;99.90
51950;DHT22;37974;53.218;6.640;2023-09-19T02:23:24;13.00;99.90
51950;DHT22;37974;53.218;6.640;2023-09-19T02:25:53;13.00;99.90
51950;DHT22;37974;53.218;6.640;2023-09-19T02:28:19;13.00;99.90
51950;DHT22;37974;53.218;6.640;2023-09-19T02:30:49;13.00;99.90
51950;DHT22;37974;53.218;6.640;2023-09-19T02:33:16;13.00;99.90
51950;DHT22;37974;53.218;6.640;2023-09-19T02:35:43;12.90;99.90
51950;DHT22;37974;53.218;6.640;2023-09-19T02:38:08;12.90;99.90
51950;DHT22;37974;53.218;6.640;2023-09-19T02:40:40;12.90;99.90
51950;DHT22;37974;53.218;6.640;2023-09-19T02:43:05;12.90;99.90
51950;DHT22;37974;53.218;6.640;2023-09-19T02:45:32;12.80;99.90
51950;DHT22;37974;53.218;6.640;2023-09-19T02:47:58;12.80;99.90
51950;DHT22;37974;53.218;6.640;2023-09-19T02:50:24;12.80;99.90
51950;DHT22;37974;53.218;6.640;2023-09-19T02:52:49;12.80;99.90
51950;DHT22;37974;53.218;6.640;2023-09-19T02:55:16;12.80;99.90
51950;DHT22;37974;53.218;6.640;2023-09-19T02:57:52;12.90;99.90
51950;DHT22;37974;53.218;6.640;2023-09-19T03:00:19;12.80;99.90
51950;DHT22;37974;53.218;6.640;2023-09-19T03:02:54;12.80;99.90
51950;DHT22;37974;53.218;6.640;2023-09-19T03:05:21;12.80;99.90
51950;DHT22;37974;53.218;6.640;2023-09-19T03:07:48;12.80;99.90
51950;DHT22;37974;53.218;6.640;2023-09-19T03:10:20;12.80;99.90
51950;DHT22;37974;53.218;6.640;2023-09-19T03:12:49;12.90;99.90
51950;DHT22;37974;53.218;6.640;2023-09-19T03:15:15;12.90;99.90
51950;DHT22;37974;53.218;6.640;2023-09-19T03:17:45;12.90;99.90
51950;DHT22;37974;53.218;6.640;2023-09-19T03:20:11;12.90;99.90
51950;DHT22;37974;53.218;6.640;2023-09-19T03:22:39;12.90;99.90
51950;DHT22;37974;53.218;6.640;2023-09-19T03:25:08;12.80;99.90
51950;DHT22;37974;53.218;6.640;2023-09-19T03:27:37;12.80;99.90
51950;DHT22;37974;53.218;6.640;2023-09-19T03:30:04;12.80;99.90
51950;DHT22;37974;53.218;6.640;2023-09-19T03:32:46;12.80;99.90
51950;DHT22;37974;53.218;6.640;2023-09-19T03:35:13;12.70;99.90
51950;DHT22;37974;53.218;6.640;2023-09-19T03:37:40;12.70;99.90
51950;DHT22;37974;53.218;6.640;2023-09-19T03:40:06;12.60;99.90
51950;DHT22;37974;53.218;6.640;2023-09-19T03:42:33;12.60;99.90
51950;DHT22;37974;53.218;6.640;2023-09-19T03:45:01;12.60;99.90
51950;DHT22;37974;53.218;6.640;2023-09-19T03:47:29;12.60;99.90
51950;DHT22;37974;53.218;6.640;2023-09-19T03:49:55;12.60;99.90
51950;DHT22;37974;53.218;6.640;2023-09-19T03:52:20;12.60;99.90
51950;DHT22;37974;53.218;6.640;2023-09-19T03:54:46;12.60;99.90
51950;DHT22;37974;53.218;6.640;2023-09-19T03:57:12;12.60;99.90
51950;DHT22;37974;53.218;6.640;2023-09-19T03:59:38;12.50;99.90
51950;DHT22;37974;53.218;6.640;2023-09-19T04:02:03;12.60;99.90
51950;DHT22;37974;53.218;6.640;2023-09-19T04:04:30;12.60;99.90
51950;DHT22;37974;53.218;6.640;2023-09-19T04:06:55;12.60;99.90
51950;DHT22;37974;53.218;6.640;2023-09-19T04:09:21;12.70;99.90
51950;DHT22;37974;53.218;6.640;2023-09-19T04:11:47;12.70;99.90
51950;DHT22;37974;53.218;6.640;2023-09-19T04:14:12;12.70;99.90
51950;DHT22;37974;53.218;6.640;2023-09-19T04:16:38;12.80;99.90
51950;DHT22;37974;53.218;6.640;2023-09-19T04:19:04;12.80;99.90
51950;DHT22;37974;53.218;6.640;2023-09-19T04:21:33;12.80;99.90
51950;DHT22;37974;53.218;6.640;2023-09-19T04:23:59;12.90;99.90
51950;DHT22;37974;53.218;6.640;2023-09-19T04:26:24;12.90;99.90
51950;DHT22;37974;53.218;6.640;2023-09-19T04:28:51;12.90;99.90
51950;DHT22;37974;53.218;6.640;2023-09-19T04:31:17;12.90;99.90
51950;DHT22;37974;53.218;6.640;2023-09-19T04:33:44;12.90;99.90
51950;DHT22;37974;53.218;6.640;2023-09-19T04:36:09;12.90;99.90
51950;DHT22;37974;53.218;6.640;2023-09-19T04:38:35;12.90;99.90
51950;DHT22;37974;53.218;6.640;2023-09-19T04:41:01;12.90;99.90
51950;DHT22;37974;53.218;6.640;2023-09-19T04:43:26;12.90;99.90
51950;DHT22;37974;53.218;6.640;2023-09-19T04:45:52;13.00;99.90
51950;DHT22;37974;53.218;6.640;2023-09-19T04:48:24;12.90;99.90
51950;DHT22;37974;53.218;6.640;2023-09-19T04:50:50;13.00;99.90
51950;DHT22;37974;53.218;6.640;2023-09-19T04:53:17;13.00;99.90
51950;DHT22;37974;53.218;6.640;2023-09-19T04:55:43;13.00;99.90
51950;DHT22;37974;53.218;6.640;2023-09-19T04:58:08;13.00;99.90
51950;DHT22;37974;53.218;6.640;2023-09-19T05:00:34;13.00;99.90
51950;DHT22;37974;53.218;6.640;2023-09-19T05:03:00;13.00;99.90
51950;DHT22;37974;53.218;6.640;2023-09-19T05:05:26;13.10;99.90
51950;DHT22;37974;53.218;6.640;2023-09-19T05:07:52;13.10;99.90
51950;DHT22;37974;53.218;6.640;2023-09-19T05:10:21;13.10;99.90
51950;DHT22;37974;53.218;6.640;2023-09-19T05:12:47;13.10;99.90
51950;DHT22;37974;53.218;6.640;2023-09-19T05:15:14;13.10;99.90
51950;DHT22;37974;53.218;6.640;2023-09-19T05:17:50;13.10;99.90
51950;DHT22;37974;53.218;6.640;2023-09-19T05:20:17;13.10;99.90
51950;DHT22;37974;53.218;6.640;2023-09-19T05:23:03;13.10;99.90
51950;DHT22;37974;53.218;6.640;2023-09-19T05:25:33;13.10;99.90
51950;DHT22;37974;53.218;6.640;2023-09-19T05:28:03;13.10;99.90
51950;DHT22;37974;53.218;6.640;2023-09-19T05:30:29;13.10;99.90
51950;DHT22;37974;53.218;6.640;2023-09-19T05:32:55;13.20;99.90
51950;DHT22;37974;53.218;6.640;2023-09-19T05:35:22;13.20;99.90
51950;DHT22;37974;53.218;6.640;2023-09-19T05:37:50;13.20;99.90
51950;DHT22;37974;53.218;6.640;2023-09-19T05:40:17;13.20;99.90
51950;DHT22;37974;53.218;6.640;2023-09-19T05:42:43;13.20;99.90
51950;DHT22;37974;53.218;6.640;2023-09-19T05:45:10;13.20;99.90
51950;DHT22;37974;53.218;6.640;2023-09-19T05:47:41;13.20;99.90
51950;DHT22;37974;53.218;6.640;2023-09-19T05:50:09;13.30;99.90
51950;DHT22;37974;53.218;6.640;2023-09-19T05:52:38;13.30;99.90
51950;DHT22;37974;53.218;6.640;2023-09-19T05:55:05;13.30;99.90
51950;DHT22;37974;53.218;6.640;2023-09-19T05:57:32;13.30;99.90
51950;DHT22;37974;53.218;6.640;2023-09-19T05:59:58;13.40;99.90
51950;DHT22;37974;53.218;6.640;2023-09-19T06:02:24;13.30;99.90
51950;DHT22;37974;53.218;6.640;2023-09-19T06:04:51;13.40;99.90
51950;DHT22;37974;53.218;6.640;2023-09-19T06:07:18;13.40;99.90
51950;DHT22;37974;53.218;6.640;2023-09-19T06:09:44;13.40;99.90
51950;DHT22;37974;53.218;6.640;2023-09-19T06:12:09;13.40;99.90
51950;DHT22;37974;53.218;6.640;2023-09-19T06:14:39;13.40;99.90
51950;DHT22;37974;53.218;6.640;2023-09-19T06:17:06;13.40;99.90
51950;DHT22;37974;53.218;6.640;2023-09-19T06:19:32;13.50;99.90
51950;DHT22;37974;53.218;6.640;2023-09-19T06:21:58;13.50;99.90
51950;DHT22;37974;53.218;6.640;2023-09-19T06:24:25;13.50;99.90
51950;DHT22;37974;53.218;6.640;2023-09-19T06:26:51;13.60;99.90
51950;DHT22;37974;53.218;6.640;2023-09-19T06:29:18;13.70;99.90
51950;DHT22;37974;53.218;6.640;2023-09-19T06:31:46;13.70;99.90
51950;DHT22;37974;53.218;6.640;2023-09-19T06:34:12;13.70;99.90
51950;DHT22;37974;53.218;6.640;2023-09-19T06:36:41;13.80;99.90
51950;DHT22;37974;53.218;6.640;2023-09-19T06:39:07;13.80;99.90
51950;DHT22;37974;53.218;6.640;2023-09-19T06:41:37;13.80;99.90
51950;DHT22;37974;53.218;6.640;2023-09-19T06:44:05;13.80;99.90
51950;DHT22;37974;53.218;6.640;2023-09-19T06:46:31;13.90;99.90
51950;DHT22;37974;53.218;6.640;2023-09-19T06:49:01;13.90;99.90
51950;DHT22;37974;53.218;6.640;2023-09-19T06:51:32;14.00;99.90
51950;DHT22;37974;53.218;6.640;2023-09-19T06:53:58;14.00;99.90
51950;DHT22;37974;53.218;6.640;2023-09-19T06:56:24;14.00;99.90
51950;DHT22;37974;53.218;6.640;2023-09-19T06:58:50;14.10;99.90
51950;DHT22;37974;53.218;6.640;2023-09-19T07:01:15;14.10;99.90
51950;DHT22;37974;53.218;6.640;2023-09-19T07:03:41;14.10;99.90
51950;DHT22;37974;53.218;6.640;2023-09-19T07:06:07;14.20;99.90
51950;DHT22;37974;53.218;6.640;2023-09-19T07:08:34;14.20;99.90
51950;DHT22;37974;53.218;6.640;2023-09-19T07:11:00;14.30;99.90
51950;DHT22;37974;53.218;6.640;2023-09-19T07:13:26;14.30;99.90
51950;DHT22;37974;53.218;6.640;2023-09-19T07:15:53;14.40;99.90
51950;DHT22;37974;53.218;6.640;2023-09-19T07:18:19;14.40;99.90
51950;DHT22;37974;53.218;6.640;2023-09-19T07:20:46;14.50;99.90
51950;DHT22;37974;53.218;6.640;2023-09-19T07:23:21;14.50;99.90
51950;DHT22;37974;53.218;6.640;2023-09-19T07:25:49;14.60;99.90
51950;DHT22;37974;53.218;6.640;2023-09-19T07:28:15;14.60;99.90
51950;DHT22;37974;53.218;6.640;2023-09-19T07:30:41;14.70;99.90
51950;DHT22;37974;53.218;6.640;2023-09-19T07:33:07;14.70;99.90
51950;DHT22;37974;53.218;6.640;2023-09-19T07:35:37;14.70;99.90
51950;DHT22;37974;53.218;6.640;2023-09-19T07:38:05;14.80;99.90
51950;DHT22;37974;53.218;6.640;2023-09-19T07:40:31;14.80;99.90
51950;DHT22;37974;53.218;6.640;2023-09-19T07:42:57;14.80;99.90
51950;DHT22;37974;53.218;6.640;2023-09-19T07:45:30;14.80;99.90
51950;DHT22;37974;53.218;6.640;2023-09-19T07:47:57;14.80;99.90
51950;DHT22;37974;53.218;6.640;2023-09-19T07:50:23;14.90;99.90
51950;DHT22;37974;53.218;6.640;2023-09-19T07:52:49;15.00;99.90
51950;DHT22;37974;53.218;6.640;2023-09-19T07:55:19;15.10;99.90
51950;DHT22;37974;53.218;6.640;2023-09-19T07:57:49;15.10;99.90
51950;DHT22;37974;53.218;6.640;2023-09-19T08:00:15;15.20;99.90
51950;DHT22;37974;53.218;6.640;2023-09-19T08:02:41;15.20;99.90
51950;DHT22;37974;53.218;6.640;2023-09-19T08:05:11;15.20;99.90
51950;DHT22;37974;53.218;6.640;2023-09-19T08:07:38;15.10;99.90
51950;DHT22;37974;53.218;6.640;2023-09-19T08:10:05;15.10;99.90
51950;DHT22;37974;53.218;6.640;2023-09-19T08:12:45;15.10;99.90
51950;DHT22;37974;53.218;6.640;2023-09-19T08:15:19;15.20;99.90
51950;DHT22;37974;53.218;6.640;2023-09-19T08:17:45;15.20;99.90
51950;DHT22;37974;53.218;6.640;2023-09-19T08:20:12;15.20;99.90
51950;DHT22;37974;53.218;6.640;2023-09-19T08:22:52;15.20;99.90
51950;DHT22;37974;53.218;6.640;2023-09-19T08:25:23;15.30;99.90
51950;DHT22;37974;53.218;6.640;2023-09-19T08:27:50;15.30;99.90
51950;DHT22;37974;53.218;6.640;2023-09-19T08:30:22;15.40;99.90
51950;DHT22;37974;53.218;6.640;2023-09-19T08:32:59;15.60;99.90
51950;DHT22;37974;53.218;6.640;2023-09-19T08:35:26;15.60;99.90
51950;DHT22;37974;53.218;6.640;2023-09-19T08:37:51;15.60;99.90
51950;DHT22;37974;53.218;6.640;2023-09-19T08:40:17;15.70;99.90
51950;DHT22;37974;53.218;6.640;2023-09-19T08:42:51;15.80;99.90
51950;DHT22;37974;53.218;6.640;2023-09-19T08:45:17;15.80;99.90
51950;DHT22;37974;53.218;6.640;2023-09-19T08:47:50;15.90;99.90
51950;DHT22;37974;53.218;6.640;2023-09-19T08:50:28;15.90;99.90
51950;DHT22;37974;53.218;6.640;2023-09-19T08:52:56;16.00;99.90
51950;DHT22;37974;53.218;6.640;2023-09-19T08:55:28;16.10;99.90
51950;DHT22;37974;53.218;6.640;2023-09-19T08:58:14;16.10;99.90
51950;DHT22;37974;53.218;6.640;2023-09-19T09:00:46;16.20;99.90
51950;DHT22;37974;53.218;6.640;2023-09-19T09:03:15;16.20;99.90
51950;DHT22;37974;53.218;6.640;2023-09-19T09:05:43;16.20;99.90
51950;DHT22;37974;53.218;6.640;2023-09-19T09:08:12;16.20;99.90
51950;DHT22;37974;53.218;6.640;2023-09-19T09:10:38;16.20;99.90
51950;DHT22;37974;53.218;6.640;2023-09-19T09:13:06;16.30;99.90
51950;DHT22;37974;53.218;6.640;2023-09-19T09:15:35;16.40;99.90
51950;DHT22;37974;53.218;6.640;2023-09-19T09:18:02;16.40;99.90
51950;DHT22;37974;53.218;6.640;2023-09-19T09:20:30;16.40;99.90
51950;DHT22;37974;53.218;6.640;2023-09-19T09:22:56;16.40;99.90
51950;DHT22;37974;53.218;6.640;2023-09-19T09:25:52;16.40;99.90
51950;DHT22;37974;53.218;6.640;2023-09-19T09:28:26;16.40;99.90
51950;DHT22;37974;53.218;6.640;2023-09-19T09:30:57;16.50;99.90
51950;DHT22;37974;53.218;6.640;2023-09-19T09:33:34;16.50;99.90
51950;DHT22;37974;53.218;6.640;2023-09-19T09:36:01;16.50;99.90
51950;DHT22;37974;53.218;6.640;2023-09-19T09:38:45;16.60;99.90
51950;DHT22;37974;53.218;6.640;2023-09-19T09:41:12;16.70;99.90
51950;DHT22;37974;53.218;6.640;2023-09-19T09:43:42;16.70;99.90
51950;DHT22;37974;53.218;6.640;2023-09-19T09:46:19;16.70;99.90
51950;DHT22;37974;53.218;6.640;2023-09-19T09:51:41;17.00;99.90
51950;DHT22;37974;53.218;6.640;2023-09-19T09:54:15;17.10;99.90
51950;DHT22;37974;53.218;6.640;2023-09-19T09:56:54;17.20;99.90
51950;DHT22;37974;53.218;6.640;2023-09-19T09:59:44;17.30;99.90
51950;DHT22;37974;53.218;6.640;2023-09-19T10:02:17;17.40;99.90
51950;DHT22;37974;53.218;6.640;2023-09-19T10:04:52;17.50;99.90
51950;DHT22;37974;53.218;6.640;2023-09-19T10:07:31;17.60;99.90
51950;DHT22;37974;53.218;6.640;2023-09-19T10:10:33;17.70;99.90
51950;DHT22;37974;53.218;6.640;2023-09-19T10:13:12;17.80;99.90
51950;DHT22;37974;53.218;6.640;2023-09-19T10:15:39;17.80;99.90
51950;DHT22;37974;53.218;6.640;2023-09-19T10:18:20;17.80;99.90
51950;DHT22;37974;53.218;6.640;2023-09-19T10:20:47;17.90;99.90
51950;DHT22;37974;53.218;6.640;2023-09-19T10:23:17;17.90;99.90
51950;DHT22;37974;53.218;6.640;2023-09-19T10:25:48;17.90;99.90
51950;DHT22;37974;53.218;6.640;2023-09-19T10:28:14;17.90;99.90
51950;DHT22;37974;53.218;6.640;2023-09-19T10:33:11;18.20;99.90
51950;DHT22;37974;53.218;6.640;2023-09-19T10:35:46;18.20;99.90
51950;DHT22;37974;53.218;6.640;2023-09-19T10:38:14;18.40;99.90
51950;DHT22;37974;53.218;6.640;2023-09-19T10:40:40;18.40;99.90
51950;DHT22;37974;53.218;6.640;2023-09-19T10:43:13;18.50;99.90
51950;DHT22;37974;53.218;6.640;2023-09-19T10:45:44;18.60;99.90
51950;DHT22;37974;53.218;6.640;2023-09-19T10:48:10;18.50;99.90
51950;DHT22;37974;53.218;6.640;2023-09-19T10:53:27;18.40;99.90
51950;DHT22;37974;53.218;6.640;2023-09-19T10:55:57;18.40;99.90
51950;DHT22;37974;53.218;6.640;2023-09-19T10:58:29;18.30;99.90
51950;DHT22;37974;53.218;6.640;2023-09-19T11:00:59;18.20;99.90
51950;DHT22;37974;53.218;6.640;2023-09-19T11:03:35;18.10;99.90
51950;DHT22;37974;53.218;6.640;2023-09-19T11:30:46;18.30;99.90
51950;DHT22;37974;53.218;6.640;2023-09-19T11:33:29;18.30;99.90
51950;DHT22;37974;53.218;6.640;2023-09-19T11:36:14;18.20;99.90
51950;DHT22;37974;53.218;6.640;2023-09-19T11:43:47;18.00;99.90
51950;DHT22;37974;53.218;6.640;2023-09-19T11:46:13;18.10;99.90
51950;DHT22;37974;53.218;6.640;2023-09-19T11:48:43;18.20;99.90
51950;DHT22;37974;53.218;6.640;2023-09-19T11:51:11;18.20;99.90
51950;DHT22;37974;53.218;6.640;2023-09-19T11:53:46;18.20;99.90
51950;DHT22;37974;53.218;6.640;2023-09-19T11:56:16;18.20;99.90
51950;DHT22;37974;53.218;6.640;2023-09-19T11:58:44;18.20;99.90
51950;DHT22;37974;53.218;6.640;2023-09-19T12:01:13;18.30;99.90
51950;DHT22;37974;53.218;6.640;2023-09-19T12:03:42;18.20;99.90
51950;DHT22;37974;53.218;6.640;2023-09-19T12:06:14;18.20;99.90
51950;DHT22;37974;53.218;6.640;2023-09-19T12:08:41;18.10;99.90
51950;DHT22;37974;53.218;6.640;2023-09-19T12:11:12;18.10;99.90
51950;DHT22;37974;53.218;6.640;2023-09-19T12:13:46;18.00;99.90
51950;DHT22;37974;53.218;6.640;2023-09-19T12:16:17;17.90;99.90
51950;DHT22;37974;53.218;6.640;2023-09-19T12:18:47;17.80;99.90
51950;DHT22;37974;53.218;6.640;2023-09-19T12:21:30;17.80;99.90
51950;DHT22;37974;53.218;6.640;2023-09-19T12:26:37;17.80;99.90
51950;DHT22;37974;53.218;6.640;2023-09-19T12:29:03;17.80;99.90
51950;DHT22;37974;53.218;6.640;2023-09-19T12:31:30;17.80;99.90
51950;DHT22;37974;53.218;6.640;2023-09-19T12:34:01;17.80;99.90
51950;DHT22;37974;53.218;6.640;2023-09-19T12:36:27;17.80;99.90
51950;DHT22;37974;53.218;6.640;2023-09-19T12:38:56;17.80;99.90
51950;DHT22;37974;53.218;6.640;2023-09-19T12:41:25;17.70;99.90
51950;DHT22;37974;53.218;6.640;2023-09-19T12:43:52;17.60;99.90
51950;DHT22;37974;53.218;6.640;2023-09-19T12:46:22;17.60;99.90
51950;DHT22;37974;53.218;6.640;2023-09-19T12:51:46;17.80;99.90
51950;DHT22;37974;53.218;6.640;2023-09-19T12:54:12;17.70;99.90
51950;DHT22;37974;53.218;6.640;2023-09-19T12:56:41;17.80;99.90
51950;DHT22;37974;53.218;6.640;2023-09-19T12:59:13;17.80;99.90
51950;DHT22;37974;53.218;6.640;2023-09-19T13:01:42;17.80;99.90
51950;DHT22;37974;53.218;6.640;2023-09-19T13:04:18;17.80;99.90
51950;DHT22;37974;53.218;6.640;2023-09-19T13:06:49;17.80;99.90
51950;DHT22;37974;53.218;6.640;2023-09-19T13:09:16;17.80;99.90
51950;DHT22;37974;53.218;6.640;2023-09-19T13:11:42;17.70;99.90
51950;DHT22;37974;53.218;6.640;2023-09-19T13:17:02;17.70;99.90
51950;DHT22;37974;53.218;6.640;2023-09-19T13:19:45;17.70;99.90
51950;DHT22;37974;53.218;6.640;2023-09-19T13:25:13;17.70;99.90
51950;DHT22;37974;53.218;6.640;2023-09-19T13:27:45;17.80;99.90
51950;DHT22;37974;53.218;6.640;2023-09-19T13:30:14;17.80;99.90
51950;DHT22;37974;53.218;6.640;2023-09-19T13:32:40;17.70;99.90
51950;DHT22;37974;53.218;6.640;2023-09-19T13:35:08;17.70;99.90
51950;DHT22;37974;53.218;6.640;2023-09-19T13:37:42;17.60;99.90
51950;DHT22;37974;53.218;6.640;2023-09-19T13:42:34;17.50;99.90
51950;DHT22;37974;53.218;6.640;2023-09-19T13:45:05;17.50;99.90
51950;DHT22;37974;53.218;6.640;2023-09-19T13:47:32;17.50;99.90
51950;DHT22;37974;53.218;6.640;2023-09-19T13:50:02;17.50;99.90
51950;DHT22;37974;53.218;6.640;2023-09-19T13:52:32;17.50;99.90
51950;DHT22;37974;53.218;6.640;2023-09-19T13:54:59;17.50;99.90
51950;DHT22;37974;53.218;6.640;2023-09-19T13:57:25;17.50;99.90
51950;DHT22;37974;53.218;6.640;2023-09-19T13:59:53;17.60;99.90
51950;DHT22;37974;53.218;6.640;2023-09-19T14:02:20;17.70;99.90
51950;DHT22;37974;53.218;6.640;2023-09-19T14:04:57;17.70;99.90
51950;DHT22;37974;53.218;6.640;2023-09-19T14:07:23;17.80;99.90
51950;DHT22;37974;53.218;6.640;2023-09-19T14:09:49;17.80;99.90
51950;DHT22;37974;53.218;6.640;2023-09-19T14:12:15;17.80;99.90
51950;DHT22;37974;53.218;6.640;2023-09-19T14:14:40;17.80;99.90
51950;DHT22;37974;53.218;6.640;2023-09-19T14:17:06;17.80;99.90
51950;DHT22;37974;53.218;6.640;2023-09-19T14:19:33;17.80;99.90
51950;DHT22;37974;53.218;6.640;2023-09-19T14:21:58;17.90;99.90
51950;DHT22;37974;53.218;6.640;2023-09-19T14:24:25;17.90;99.90
51950;DHT22;37974;53.218;6.640;2023-09-19T14:26:51;18.00;99.90
51950;DHT22;37974;53.218;6.640;2023-09-19T14:29:17;18.10;99.90
51950;DHT22;37974;53.218;6.640;2023-09-19T14:31:43;18.10;99.90
51950;DHT22;37974;53.218;6.640;2023-09-19T14:34:09;18.10;99.90
51950;DHT22;37974;53.218;6.640;2023-09-19T14:36:36;18.10;99.90
51950;DHT22;37974;53.218;6.640;2023-09-19T14:39:04;18.10;99.90
51950;DHT22;37974;53.218;6.640;2023-09-19T14:41:30;18.10;99.90
51950;DHT22;37974;53.218;6.640;2023-09-19T14:43:57;18.10;99.90
51950;DHT22;37974;53.218;6.640;2023-09-19T14:46:23;18.00;99.90
51950;DHT22;37974;53.218;6.640;2023-09-19T14:48:52;18.10;99.90
51950;DHT22;37974;53.218;6.640;2023-09-19T14:51:19;18.10;99.90
51950;DHT22;37974;53.218;6.640;2023-09-19T14:53:46;18.10;99.90
51950;DHT22;37974;53.218;6.640;2023-09-19T14:56:12;18.10;99.90
51950;DHT22;37974;53.218;6.640;2023-09-19T14:58:41;18.00;99.90
51950;DHT22;37974;53.218;6.640;2023-09-19T15:01:09;18.00;99.90
51950;DHT22;37974;53.218;6.640;2023-09-19T15:03:39;18.00;99.90
51950;DHT22;37974;53.218;6.640;2023-09-19T15:06:07;17.90;99.90
51950;DHT22;37974;53.218;6.640;2023-09-19T15:08:36;17.90;99.90
51950;DHT22;37974;53.218;6.640;2023-09-19T15:11:07;17.90;99.90
51950;DHT22;37974;53.218;6.640;2023-09-19T15:13:34;17.90;99.90
51950;DHT22;37974;53.218;6.640;2023-09-19T15:16:04;17.90;99.90
51950;DHT22;37974;53.218;6.640;2023-09-19T15:18:35;17.80;99.90
51950;DHT22;37974;53.218;6.640;2023-09-19T15:21:12;17.80;99.90
51950;DHT22;37974;53.218;6.640;2023-09-19T15:23:40;17.80;99.90
51950;DHT22;37974;53.218;6.640;2023-09-19T15:26:08;17.80;99.90
51950;DHT22;37974;53.218;6.640;2023-09-19T15:28:34;17.70;99.90
51950;DHT22;37974;53.218;6.640;2023-09-19T15:31:06;17.70;99.90
51950;DHT22;37974;53.218;6.640;2023-09-19T15:33:32;17.70;99.90
51950;DHT22;37974;53.218;6.640;2023-09-19T15:38:32;17.60;99.90
51950;DHT22;37974;53.218;6.640;2023-09-19T15:41:19;17.50;99.90
51950;DHT22;37974;53.218;6.640;2023-09-19T15:43:46;17.50;99.90
51950;DHT22;37974;53.218;6.640;2023-09-19T15:46:12;17.40;99.90
51950;DHT22;37974;53.218;6.640;2023-09-19T15:48:39;17.30;99.90
51950;DHT22;37974;53.218;6.640;2023-09-19T15:51:05;17.30;99.90
51950;DHT22;37974;53.218;6.640;2023-09-19T15:53:51;17.20;99.90
51950;DHT22;37974;53.218;6.640;2023-09-19T15:56:18;17.10;99.90
51950;DHT22;37974;53.218;6.640;2023-09-19T15:58:47;17.10;99.90
51950;DHT22;37974;53.218;6.640;2023-09-19T16:01:14;17.10;99.90
51950;DHT22;37974;53.218;6.640;2023-09-19T16:03:43;17.00;99.90
51950;DHT22;37974;53.218;6.640;2023-09-19T16:06:10;17.00;99.90
51950;DHT22;37974;53.218;6.640;2023-09-19T16:08:43;17.00;99.90
51950;DHT22;37974;53.218;6.640;2023-09-19T16:11:10;17.00;99.90
51950;DHT22;37974;53.218;6.640;2023-09-19T16:13:39;17.00;99.90
51950;DHT22;37974;53.218;6.640;2023-09-19T16:16:12;17.10;99.90
51950;DHT22;37974;53.218;6.640;2023-09-19T16:18:55;17.10;99.90
51950;DHT22;37974;53.218;6.640;2023-09-19T16:21:23;17.10;99.90
51950;DHT22;37974;53.218;6.640;2023-09-19T16:23:51;17.10;99.90
51950;DHT22;37974;53.218;6.640;2023-09-19T16:26:19;17.10;99.90
51950;DHT22;37974;53.218;6.640;2023-09-19T16:28:47;17.00;99.90
51950;DHT22;37974;53.218;6.640;2023-09-19T16:31:13;17.00;99.90
51950;DHT22;37974;53.218;6.640;2023-09-19T16:33:40;17.00;99.90
51950;DHT22;37974;53.218;6.640;2023-09-19T16:36:14;17.00;99.90
51950;DHT22;37974;53.218;6.640;2023-09-19T16:38:41;17.00;99.90
51950;DHT22;37974;53.218;6.640;2023-09-19T16:41:07;17.00;99.90
51950;DHT22;37974;53.218;6.640;2023-09-19T16:43:37;16.90;99.90
51950;DHT22;37974;53.218;6.640;2023-09-19T16:46:05;16.90;99.90
51950;DHT22;37974;53.218;6.640;2023-09-19T16:48:35;16.90;99.90
51950;DHT22;37974;53.218;6.640;2023-09-19T16:51:03;16.90;99.90